createdAt,value
2023-01-07T00:02:29.121Z,100769.71
2023-01-07T00:04:59.125Z,100768.86
2023-01-07T00:07:33.183Z,100769.58
2023-01-07T00:10:03.122Z,100768.75
2023-01-07T00:12:33.395Z,100763.97
2023-01-07T00:15:05.033Z,100760.40
2023-01-07T00:17:37.730Z,100759.63
2023-01-07T00:20:08.267Z,100757.11
2023-01-07T00:22:42.971Z,100753.21
2023-01-07T00:25:18.349Z,100755.88
2023-01-07T00:27:50.423Z,100752.48
2023-01-07T00:30:20.571Z,100756.37
2023-01-07T00:33:06.457Z,100755.39
2023-01-07T00:35:38.926Z,100756.67
2023-01-07T00:38:11.607Z,100755.86
2023-01-07T00:40:44.923Z,100755.08
2023-01-07T00:43:17.408Z,100756.36
2023-01-07T00:45:51.919Z,100760.76
2023-01-07T00:48:24.005Z,100764.31
2023-01-07T00:50:54.993Z,100774.78
2023-01-07T00:53:25.598Z,100779.01
2023-01-07T00:55:56.521Z,100776.65
2023-01-07T00:58:27.157Z,100776.05
2023-01-07T01:01:02.069Z,100778.36
2023-01-07T01:03:35.426Z,100776.52
2023-01-07T01:06:14.020Z,100780.86
2023-01-07T01:08:48.373Z,100781.61
2023-01-07T01:11:20.719Z,100782.48
2023-01-07T01:13:53.060Z,100775.38
2023-01-07T01:16:26.421Z,100780.06
2023-01-07T01:18:59.182Z,100784.73
2023-01-07T01:21:29.091Z,100790.13
2023-01-07T01:23:58.822Z,100792.09
2023-01-07T01:26:28.563Z,100791.60
2023-01-07T01:29:00.029Z,100792.11
2023-01-07T01:31:30.094Z,100798.49
2023-01-07T01:34:00.678Z,100794.46
2023-01-07T01:36:30.681Z,100789.56
2023-01-07T01:39:05.222Z,100785.89
2023-01-07T01:41:36.840Z,100785.70
2023-01-07T01:44:37.135Z,100786.52
2023-01-07T01:47:21.430Z,100782.41
2023-01-07T01:50:29.255Z,100779.63
2023-01-07T01:53:28.645Z,100780.70
2023-01-07T01:56:11.243Z,100780.17
2023-01-07T01:59:03.768Z,100776.70
2023-01-07T02:01:35.667Z,100774.11
2023-01-07T02:04:14.274Z,100780.48
2023-01-07T02:07:03.261Z,100782.08
2023-01-07T02:09:34.205Z,100778.81
2023-01-07T02:12:26.238Z,100782.96
2023-01-07T02:15:46.290Z,100786.11
2023-01-07T02:18:36.990Z,100778.40
2023-01-07T02:21:14.921Z,100775.67
2023-01-07T02:24:17.799Z,100771.68
2023-01-07T02:27:23.678Z,100766.85
2023-01-07T02:30:39.305Z,100762.48
2023-01-07T02:33:34.639Z,100757.56
2023-01-07T02:36:37.790Z,100751.28
2023-01-07T02:39:22.465Z,100750.02
2023-01-07T02:42:04.400Z,100756.15
2023-01-07T02:44:39.869Z,100762.17
2023-01-07T02:48:03.414Z,100769.35
2023-01-07T02:50:32.992Z,100780.63
2023-01-07T02:53:02.353Z,100789.41
2023-01-07T02:56:17.929Z,100785.04
2023-01-07T02:59:06.088Z,100788.15
2023-01-07T03:01:56.621Z,100787.09
2023-01-07T03:04:47.737Z,100783.94
2023-01-07T03:07:51.758Z,100789.20
2023-01-07T03:10:48.195Z,100791.23
2023-01-07T03:13:23.999Z,100788.61
2023-01-07T03:16:14.242Z,100784.63
2023-01-07T03:18:56.136Z,100782.56
2023-01-07T03:21:28.604Z,100783.63
2023-01-07T03:24:00.196Z,100783.61
2023-01-07T03:26:41.865Z,100787.35
2023-01-07T03:29:15.798Z,100786.10
2023-01-07T03:31:59.341Z,100788.67
2023-01-07T03:34:32.964Z,100787.27
2023-01-07T03:37:14.671Z,100787.08
2023-01-07T03:39:46.432Z,100786.41
2023-01-07T03:42:42.669Z,100786.91
2023-01-07T03:45:21.546Z,100788.71
2023-01-07T03:47:55.806Z,100789.73
2023-01-07T03:50:26.361Z,100788.80
2023-01-07T03:52:55.774Z,100792.58
2023-01-07T03:55:26.183Z,100790.79
2023-01-07T03:57:58.219Z,100791.64
2023-01-07T04:00:28.263Z,100790.61
2023-01-07T04:03:01.787Z,100792.13
2023-01-07T04:05:35.678Z,100790.59
2023-01-07T04:08:05.659Z,100793.90
2023-01-07T04:10:37.131Z,100792.30
2023-01-07T04:13:06.841Z,100795.02
2023-01-07T04:15:38.008Z,100795.23
2023-01-07T04:18:07.697Z,100789.33
2023-01-07T04:20:37.526Z,100787.71
2023-01-07T04:23:07.315Z,100786.52
2023-01-07T04:25:43.071Z,100784.64
2023-01-07T04:28:13.491Z,100784.83
2023-01-07T04:30:43.546Z,100789.13
2023-01-07T04:33:13.498Z,100788.55
2023-01-07T04:35:46.840Z,100784.21
2023-01-07T04:38:16.840Z,100776.95
2023-01-07T04:40:46.790Z,100769.38
2023-01-07T04:43:16.793Z,100767.88
2023-01-07T04:45:46.437Z,100766.35
2023-01-07T04:48:17.625Z,100764.30
2023-01-07T04:50:48.359Z,100762.61
2023-01-07T04:53:18.251Z,100763.56
2023-01-07T04:55:48.430Z,100766.99
2023-01-07T04:58:23.243Z,100771.27
2023-01-07T05:00:58.571Z,100776.38
2023-01-07T05:03:30.683Z,100778.08
2023-01-07T05:06:02.707Z,100776.48
2023-01-07T05:08:36.809Z,100774.91
2023-01-07T05:11:06.885Z,100770.02
2023-01-07T05:13:37.654Z,100768.95
2023-01-07T05:16:10.867Z,100769.28
2023-01-07T05:18:40.859Z,100767.52
2023-01-07T05:21:11.524Z,100762.33
2023-01-07T05:23:42.211Z,100758.89
2023-01-07T05:26:12.323Z,100757.94
2023-01-07T05:28:42.483Z,100759.94
2023-01-07T05:31:14.493Z,100758.67
2023-01-07T05:33:44.274Z,100763.60
2023-01-07T05:36:14.534Z,100766.80
2023-01-07T05:38:44.456Z,100764.04
2023-01-07T05:41:16.555Z,100762.88
2023-01-07T05:43:46.802Z,100763.09
2023-01-07T05:46:17.114Z,100767.96
2023-01-07T05:48:47.271Z,100770.91
2023-01-07T05:51:16.927Z,100774.16
2023-01-07T05:53:46.735Z,100769.98
2023-01-07T05:56:16.791Z,100771.02
2023-01-07T05:58:46.593Z,100774.67
2023-01-07T06:01:16.510Z,100771.08
2023-01-07T06:03:46.374Z,100773.01
2023-01-07T06:06:18.137Z,100772.52
2023-01-07T06:08:48.291Z,100770.45
2023-01-07T06:11:20.555Z,100773.42
2023-01-07T06:13:50.599Z,100776.71
2023-01-07T06:16:23.237Z,100776.25
2023-01-07T06:18:53.157Z,100777.52
2023-01-07T06:21:24.130Z,100779.12
2023-01-07T06:23:56.974Z,100780.00
2023-01-07T06:26:28.961Z,100783.11
2023-01-07T06:28:58.652Z,100780.74
2023-01-07T06:31:33.995Z,100786.77
2023-01-07T06:34:04.046Z,100794.92
2023-01-07T06:36:33.791Z,100799.58
2023-01-07T06:39:03.983Z,100801.13
2023-01-07T06:41:33.859Z,100800.26
2023-01-07T06:44:06.204Z,100800.77
2023-01-07T06:46:37.783Z,100800.55
2023-01-07T06:49:08.147Z,100806.05
2023-01-07T06:51:38.103Z,100811.02
2023-01-07T06:54:08.118Z,100812.90
2023-01-07T06:56:48.946Z,100817.35
2023-01-07T06:59:23.705Z,100818.21
2023-01-07T07:01:53.934Z,100817.34
2023-01-07T07:04:23.710Z,100817.01
2023-01-07T07:06:53.361Z,100820.09
2023-01-07T07:09:33.461Z,100821.71
2023-01-07T07:12:08.835Z,100818.20
2023-01-07T07:14:41.344Z,100815.46
2023-01-07T07:17:11.333Z,100813.73
2023-01-07T07:19:43.843Z,100821.00
2023-01-07T07:22:33.286Z,100826.27
2023-01-07T07:25:08.573Z,100822.39
2023-01-07T07:27:44.336Z,100827.45
2023-01-07T07:30:15.912Z,100830.73
2023-01-07T07:32:48.625Z,100833.86
2023-01-07T07:35:25.690Z,100842.85
2023-01-07T07:38:09.026Z,100843.36
2023-01-07T07:40:44.401Z,100840.38
2023-01-07T07:43:25.569Z,100839.98
2023-01-07T07:46:03.626Z,100836.52
2023-01-07T07:48:35.567Z,100835.50
2023-01-07T07:51:08.102Z,100834.30
2023-01-07T07:53:44.130Z,100837.67
2023-01-07T07:56:17.102Z,100836.67
2023-01-07T07:58:50.247Z,100836.70
2023-01-07T08:01:21.943Z,100834.60
2023-01-07T08:03:54.537Z,100827.88
2023-01-07T08:06:29.738Z,100833.60
2023-01-07T08:09:03.280Z,100837.56
2023-01-07T08:11:40.830Z,100839.27
2023-01-07T08:14:12.948Z,100837.38
2023-01-07T08:16:45.321Z,100831.69
2023-01-07T08:19:17.699Z,100826.48
2023-01-07T08:21:49.585Z,100816.63
2023-01-07T08:24:22.814Z,100812.95
2023-01-07T08:27:07.394Z,100812.04
2023-01-07T08:29:39.315Z,100812.88
2023-01-07T08:32:12.755Z,100812.77
2023-01-07T08:34:46.177Z,100807.43
2023-01-07T08:37:21.551Z,100809.31
2023-01-07T08:39:58.417Z,100811.98
2023-01-07T08:42:33.333Z,100814.34
2023-01-07T08:45:27.032Z,100821.33
2023-01-07T08:48:10.577Z,100826.42
2023-01-07T08:51:01.411Z,100829.85
2023-01-07T08:53:40.164Z,100832.27
2023-01-07T08:56:24.825Z,100836.69
2023-01-07T08:59:09.161Z,100838.54
2023-01-07T09:02:01.202Z,100835.92
2023-01-07T09:04:51.107Z,100834.75
2023-01-07T09:07:34.770Z,100838.21
2023-01-07T09:10:22.161Z,100838.66
2023-01-07T09:16:02.696Z,100842.98
2023-01-07T09:18:42.843Z,100844.84
2023-01-07T09:21:24.480Z,100843.71
2023-01-07T09:24:21.268Z,100841.88
2023-01-07T09:31:09.721Z,100842.75
2023-01-07T09:34:39.204Z,100841.77
2023-01-07T09:49:23.261Z,100808.96
2023-01-07T09:52:55.986Z,100807.92
2023-01-07T09:56:12.403Z,100795.22
2023-01-07T09:59:10.818Z,100786.66
2023-01-07T10:02:44.102Z,100786.02
2023-01-07T10:05:51.975Z,100783.23
2023-01-07T10:09:09.584Z,100783.19
2023-01-07T10:12:26.006Z,100782.55
2023-01-07T10:15:35.283Z,100775.42
2023-01-07T10:18:23.789Z,100766.77
2023-01-07T10:21:42.105Z,100762.33
2023-01-07T10:24:33.675Z,100759.99
2023-01-07T10:27:24.616Z,100755.30
2023-01-07T10:29:59.616Z,100747.13
2023-01-07T10:32:36.825Z,100745.67
2023-01-07T10:35:17.777Z,100743.11
2023-01-07T10:37:52.192Z,100743.52
2023-01-07T10:40:44.428Z,100742.39
2023-01-07T10:43:49.613Z,100745.40
2023-01-07T10:47:27.161Z,100741.82
2023-01-07T10:50:25.276Z,100748.05
2023-01-07T10:53:10.849Z,100746.58
2023-01-07T10:56:37.594Z,100747.17
2023-01-07T10:59:17.607Z,100741.11
2023-01-07T11:01:58.030Z,100737.82
2023-01-07T11:04:28.119Z,100735.30
2023-01-07T11:07:07.346Z,100734.88
2023-01-07T11:09:45.892Z,100730.69
2023-01-07T11:12:27.592Z,100725.48
2023-01-07T11:15:00.869Z,100718.23
2023-01-07T11:17:49.110Z,100718.29
2023-01-07T11:20:46.264Z,100711.55
2023-01-07T11:23:37.695Z,100707.52
2023-01-07T11:26:14.222Z,100707.62
2023-01-07T11:28:59.403Z,100703.48
2023-01-07T11:32:11.726Z,100696.33
2023-01-07T11:35:02.876Z,100690.63
2023-01-07T11:37:35.387Z,100691.77
2023-01-07T11:40:13.108Z,100691.61
2023-01-07T11:43:03.818Z,100692.87
2023-01-07T11:46:19.150Z,100688.62
2023-01-07T11:48:47.351Z,100691.02
2023-01-07T11:51:17.105Z,100687.44
2023-01-07T11:53:49.904Z,100689.13
2023-01-07T11:56:21.886Z,100684.01
2023-01-07T11:59:13.506Z,100682.05
2023-01-07T12:02:01.120Z,100680.39
2023-01-07T12:04:34.051Z,100679.98
2023-01-07T12:07:17.840Z,100676.65
2023-01-07T12:09:47.907Z,100674.47
2023-01-07T12:12:39.570Z,100675.83
2023-01-07T12:15:23.557Z,100672.14
2023-01-07T12:18:29.408Z,100669.90
2023-01-07T12:21:33.455Z,100667.63
2023-01-07T12:24:32.973Z,100664.30
2023-01-07T12:27:32.354Z,100664.94
2023-01-07T12:30:43.231Z,100661.35
2023-01-07T12:33:44.163Z,100657.35
2023-01-07T12:37:02.393Z,100656.25
2023-01-07T12:39:39.155Z,100654.80
2023-01-07T12:42:27.680Z,100653.70
2023-01-07T12:45:05.574Z,100654.90
2023-01-07T12:47:42.214Z,100650.96
2023-01-07T12:50:24.087Z,100651.71
2023-01-07T12:53:03.003Z,100650.61
2023-01-07T12:55:47.332Z,100648.67
2023-01-07T12:58:44.755Z,100652.74
2023-01-07T13:01:39.000Z,100649.30
2023-01-07T13:04:22.378Z,100642.98
2023-01-07T13:07:16.550Z,100639.52
2023-01-07T13:10:00.043Z,100638.25
2023-01-07T13:12:45.478Z,100643.80
2023-01-07T13:15:31.331Z,100640.62
2023-01-07T13:18:21.125Z,100642.26
2023-01-07T13:21:03.167Z,100645.09
2023-01-07T13:23:53.607Z,100643.09
2023-01-07T13:26:44.449Z,100644.52
2023-01-07T13:29:31.451Z,100643.05
2023-01-07T13:32:47.393Z,100640.22
2023-01-07T13:35:47.667Z,100639.81
2023-01-07T13:38:47.703Z,100643.42
2023-01-07T13:41:28.753Z,100647.98
2023-01-07T13:45:05.805Z,100650.24
2023-01-07T13:48:06.337Z,100646.63
2023-01-07T13:51:00.041Z,100645.08
2023-01-07T13:53:46.410Z,100644.91
2023-01-07T13:56:18.437Z,100647.30
2023-01-07T13:58:58.224Z,100647.86
2023-01-07T14:01:35.290Z,100648.22
2023-01-07T14:04:06.419Z,100648.86
2023-01-07T14:06:43.924Z,100653.45
2023-01-07T14:09:20.343Z,100652.18
2023-01-07T14:12:24.969Z,100655.35
2023-01-07T14:15:12.923Z,100657.04
2023-01-07T14:18:06.419Z,100654.14
2023-01-07T14:20:50.558Z,100649.03
2023-01-07T14:23:34.039Z,100650.21
2023-01-07T14:26:36.775Z,100644.52
2023-01-07T14:29:32.794Z,100644.73
2023-01-07T14:32:24.931Z,100641.46
2023-01-07T14:35:08.380Z,100642.17
2023-01-07T14:37:42.170Z,100641.33
2023-01-07T14:40:26.668Z,100643.17
2023-01-07T14:43:01.378Z,100641.88
2023-01-07T14:45:36.418Z,100639.71
2023-01-07T14:48:08.471Z,100636.38
2023-01-07T14:50:51.401Z,100632.48
2023-01-07T14:53:57.559Z,100632.83
2023-01-07T14:56:39.006Z,100634.37
2023-01-07T14:59:58.624Z,100632.94
2023-01-07T15:03:03.736Z,100627.48
2023-01-07T15:05:52.008Z,100626.25
2023-01-07T15:08:45.701Z,100627.48
2023-01-07T15:11:44.786Z,100619.14
2023-01-07T15:14:46.185Z,100618.98
2023-01-07T15:17:18.429Z,100619.69
2023-01-07T15:19:47.848Z,100619.11
2023-01-07T15:22:50.499Z,100619.42
2023-01-07T15:25:45.157Z,100613.88
2023-01-07T15:28:48.186Z,100610.87
2023-01-07T15:31:35.250Z,100611.48
2023-01-07T15:34:15.729Z,100612.41
2023-01-07T15:36:52.210Z,100612.09
2023-01-07T15:39:32.812Z,100616.95
2023-01-07T15:42:02.587Z,100617.21
2023-01-07T15:44:41.355Z,100610.20
2023-01-07T15:47:34.937Z,100604.73
2023-01-07T15:50:18.942Z,100601.05
2023-01-07T15:52:53.653Z,100604.05
2023-01-07T15:55:45.903Z,100606.37
2023-01-07T15:58:31.492Z,100604.56
2023-01-07T16:01:02.779Z,100600.50
2023-01-07T16:03:36.171Z,100602.61
2023-01-07T16:06:34.048Z,100604.89
2023-01-07T16:09:18.795Z,100609.95
2023-01-07T16:11:48.487Z,100610.66
2023-01-07T16:14:25.245Z,100611.16
2023-01-07T16:17:16.255Z,100611.67
2023-01-07T16:19:45.722Z,100609.05
2023-01-07T16:22:21.151Z,100603.84
2023-01-07T16:24:53.582Z,100603.84
2023-01-07T16:27:30.279Z,100597.64
2023-01-07T16:30:01.661Z,100599.02
2023-01-07T16:32:33.390Z,100593.64
2023-01-07T16:35:10.217Z,100595.18
2023-01-07T16:37:42.152Z,100595.41
2023-01-07T16:40:37.267Z,100587.94
2023-01-07T16:43:38.673Z,100581.70
2023-01-07T16:46:29.239Z,100577.55
2023-01-07T16:49:09.235Z,100577.07
2023-01-07T16:52:03.221Z,100573.15
2023-01-07T16:54:37.472Z,100573.35
2023-01-07T16:57:27.781Z,100572.47
2023-01-07T16:59:59.817Z,100575.56
2023-01-07T17:02:55.308Z,100573.61
2023-01-07T17:05:29.132Z,100571.40
2023-01-07T17:07:59.970Z,100573.14
2023-01-07T17:10:40.704Z,100569.67
2023-01-07T17:13:15.856Z,100567.23
2023-01-07T17:15:45.010Z,100571.02
2023-01-07T17:18:17.049Z,100566.66
2023-01-07T17:20:50.681Z,100560.44
2023-01-07T17:23:26.186Z,100563.27
2023-01-07T17:26:22.546Z,100562.93
2023-01-07T17:29:13.094Z,100567.80
2023-01-07T17:31:49.762Z,100571.74
2023-01-07T17:34:21.484Z,100571.52
2023-01-07T17:36:51.518Z,100569.52
2023-01-07T17:39:22.710Z,100568.02
2023-01-07T17:42:13.427Z,100569.99
2023-01-07T17:44:43.576Z,100568.52
2023-01-07T17:47:14.131Z,100568.41
2023-01-07T17:49:44.095Z,100561.41
2023-01-07T17:52:19.289Z,100563.98
2023-01-07T17:54:52.328Z,100564.46
2023-01-07T17:57:21.930Z,100566.16
2023-01-07T17:59:51.956Z,100564.75
2023-01-07T18:02:26.268Z,100560.95
2023-01-07T18:04:55.648Z,100559.79
2023-01-07T18:07:25.875Z,100556.40
2023-01-07T18:09:55.090Z,100553.70
2023-01-07T18:12:30.558Z,100552.33
2023-01-07T18:15:04.175Z,100554.60
2023-01-07T18:17:35.559Z,100554.67
2023-01-07T18:20:08.114Z,100550.08
2023-01-07T18:22:41.750Z,100548.48
2023-01-07T18:25:25.025Z,100545.80
2023-01-07T18:27:56.054Z,100546.58
2023-01-07T18:30:25.487Z,100539.88
2023-01-07T18:32:57.101Z,100539.64
2023-01-07T18:35:26.772Z,100538.34
2023-01-07T18:38:04.106Z,100541.73
2023-01-07T18:40:39.158Z,100541.14
2023-01-07T18:43:17.318Z,100545.55
2023-01-07T18:45:52.806Z,100541.34
2023-01-07T18:48:22.983Z,100538.99
2023-01-07T18:51:03.700Z,100538.20
2023-01-07T18:53:33.956Z,100540.83
2023-01-07T18:56:11.621Z,100541.03
2023-01-07T18:58:43.295Z,100536.42
2023-01-07T19:01:14.123Z,100533.56
2023-01-07T19:03:44.048Z,100532.75
2023-01-07T19:06:14.503Z,100530.06
2023-01-07T19:08:44.567Z,100533.58
2023-01-07T19:11:15.647Z,100537.83
2023-01-07T19:13:45.649Z,100534.42
2023-01-07T19:16:18.594Z,100532.79
2023-01-07T19:18:48.745Z,100529.59
2023-01-07T19:21:22.477Z,100528.08
2023-01-07T19:23:52.157Z,100529.11
2023-01-07T19:26:22.540Z,100529.53
2023-01-07T19:28:53.116Z,100524.55
2023-01-07T19:31:23.585Z,100525.42
2023-01-07T19:33:54.517Z,100523.89
2023-01-07T19:36:23.817Z,100519.92
2023-01-07T19:38:52.990Z,100519.42
2023-01-07T19:41:23.405Z,100520.84
2023-01-07T19:43:59.411Z,100517.61
2023-01-07T19:46:28.857Z,100515.08
2023-01-07T19:48:58.002Z,100512.88
2023-01-07T19:51:29.056Z,100513.63
2023-01-07T19:53:59.340Z,100513.20
2023-01-07T19:56:34.002Z,100510.70
2023-01-07T19:59:04.013Z,100510.27
2023-01-07T20:01:33.575Z,100505.17
2023-01-07T20:04:07.881Z,100504.89
2023-01-07T20:06:39.332Z,100504.44
2023-01-07T20:09:11.446Z,100502.41
2023-01-07T20:11:42.797Z,100498.85
2023-01-07T20:14:14.022Z,100501.30
2023-01-07T20:16:43.376Z,100499.65
2023-01-07T20:19:13.740Z,100499.13
2023-01-07T20:21:43.528Z,100493.96
2023-01-07T20:24:13.418Z,100492.21
2023-01-07T20:26:42.719Z,100496.70
2023-01-07T20:29:11.980Z,100499.47
2023-01-07T20:31:45.064Z,100498.25
2023-01-07T20:34:14.946Z,100502.09
2023-01-07T20:36:44.547Z,100498.86
2023-01-07T20:39:14.115Z,100494.92
2023-01-07T20:41:44.246Z,100493.77
2023-01-07T20:44:13.757Z,100491.09
2023-01-07T20:46:43.194Z,100491.50
2023-01-07T20:49:13.182Z,100488.98
2023-01-07T20:51:42.774Z,100483.52
2023-01-07T20:54:13.732Z,100479.92
2023-01-07T20:56:45.907Z,100479.38
2023-01-07T20:59:16.415Z,100475.55
2023-01-07T21:01:47.302Z,100472.10
2023-01-07T21:04:17.076Z,100469.24
2023-01-07T21:06:54.267Z,100464.80
2023-01-07T21:09:24.535Z,100457.95
2023-01-07T21:11:56.962Z,100453.66
2023-01-07T21:15:17.421Z,100453.02
2023-01-07T21:17:47.696Z,100450.57
2023-01-07T21:20:19.223Z,100449.42
2023-01-07T21:22:56.615Z,100451.71
2023-01-07T21:25:29.023Z,100449.87
2023-01-07T21:28:13.961Z,100447.11
2023-01-07T21:30:51.145Z,100441.80
2023-01-07T21:33:24.168Z,100437.70
2023-01-07T21:35:54.484Z,100435.13
2023-01-07T21:38:27.607Z,100434.65
2023-01-07T21:41:00.815Z,100430.35
2023-01-07T21:43:38.908Z,100429.35
2023-01-07T21:46:09.491Z,100424.55
2023-01-07T21:48:43.999Z,100419.08
2023-01-07T21:51:23.004Z,100413.27
2023-01-07T21:53:56.013Z,100410.92
2023-01-07T21:56:32.939Z,100411.52
2023-01-07T21:59:05.602Z,100414.32
2023-01-07T22:01:35.348Z,100414.38
2023-01-07T22:04:08.054Z,100412.34
2023-01-07T22:06:38.746Z,100412.77
2023-01-07T22:09:14.215Z,100413.84
2023-01-07T22:11:46.363Z,100414.19
2023-01-07T22:14:19.258Z,100411.05
2023-01-07T22:16:51.567Z,100403.64
2023-01-07T22:19:20.884Z,100395.55
2023-01-07T22:21:54.743Z,100396.46
2023-01-07T22:24:24.135Z,100403.73
2023-01-07T22:27:04.905Z,100404.98
2023-01-07T22:29:37.023Z,100404.83
2023-01-07T22:32:09.724Z,100398.46
2023-01-07T22:34:51.826Z,100395.24
2023-01-07T22:37:26.449Z,100392.51
2023-01-07T22:40:05.950Z,100388.05
2023-01-07T22:42:46.655Z,100379.95
2023-01-07T22:45:50.709Z,100377.57
2023-01-07T22:48:29.712Z,100371.39
2023-01-07T22:51:20.453Z,100368.13
2023-01-07T22:53:51.600Z,100368.66
2023-01-07T22:56:22.735Z,100367.27
2023-01-07T22:58:52.854Z,100363.48
2023-01-07T23:01:23.042Z,100357.46
2023-01-07T23:03:54.828Z,100355.39
2023-01-07T23:06:27.651Z,100352.08
2023-01-07T23:09:06.133Z,100347.61
2023-01-07T23:11:49.264Z,100342.45
2023-01-07T23:14:22.368Z,100339.37
2023-01-07T23:16:52.518Z,100334.19
2023-01-07T23:19:22.612Z,100332.83
2023-01-07T23:21:54.233Z,100332.48
2023-01-07T23:24:23.834Z,100333.53
2023-01-07T23:26:54.788Z,100329.38
2023-01-07T23:29:24.221Z,100328.84
2023-01-07T23:31:53.650Z,100325.94
2023-01-07T23:34:25.456Z,100325.45
2023-01-07T23:36:54.665Z,100322.89
2023-01-07T23:39:24.046Z,100322.80
2023-01-07T23:41:53.217Z,100318.58
2023-01-07T23:44:22.313Z,100316.22
2023-01-07T23:46:51.486Z,100311.25
2023-01-07T23:49:21.851Z,100307.64
2023-01-07T23:51:51.273Z,100304.76
2023-01-07T23:54:20.964Z,100304.83
2023-01-07T23:56:54.431Z,100303.51
2023-01-07T23:59:24.041Z,100300.94
